Time,TemperatureF,DewpointF,PressureIn,WindDirection,WindDirectionDegrees,WindSpeedMPH,WindSpeedGustMPH,Humidity,HourlyPrecipIn,Conditions,Clouds,dailyrainin,SoftwareType,DateUTC
2013-03-13 00:03:00,25.5,20.0,30.17,WNW,295,3.0,15.0,79,0.00,,,0.00,weatherlink.com 1.10,2013-03-13 05:03:00,
2013-03-13 00:18:00,25.2,20.0,30.17,NW,314,4.0,13.0,82,0.00,,,0.00,weatherlink.com 1.10,2013-03-13 05:18:00,
2013-03-13 00:33:00,24.7,20.0,30.17,West,278,4.0,16.0,83,0.00,,,0.00,weatherlink.com 1.10,2013-03-13 05:33:00,
2013-03-13 00:48:00,24.7,20.0,30.17,NW,315,8.0,11.0,83,0.00,,,0.00,weatherlink.com 1.10,2013-03-13 05:48:00,
2013-03-13 01:03:00,24.4,20.0,30.17,WNW,284,3.0,15.0,82,0.00,,,0.00,weatherlink.com 1.10,2013-03-13 06:03:00,
2013-03-13 01:18:00,24.1,20.0,30.18,NW,309,6.0,18.0,83,0.00,,,0.00,weatherlink.com 1.10,2013-03-13 06:18:00,
2013-03-13 01:33:00,23.8,19.0,30.18,NW,312,3.0,13.0,83,0.00,,,0.00,weatherlink.com 1.10,2013-03-13 06:33:00,
2013-03-13 01:48:00,23.5,19.0,30.19,NNW,347,9.0,9.0,83,0.00,,,0.00,weatherlink.com 1.10,2013-03-13 06:48:00,
2013-03-13 02:03:00,23.4,19.0,30.19,WNW,300,2.0,13.0,82,0.00,,,0.00,weatherlink.com 1.10,2013-03-13 07:03:00,
2013-03-13 02:18:00,23.0,18.0,30.19,WNW,298,1.0,10.0,82,0.00,,,0.00,weatherlink.com 1.10,2013-03-13 07:18:00,
2013-03-13 02:33:00,22.9,18.0,30.19,NNW,328,2.0,11.0,82,0.00,,,0.00,weatherlink.com 1.10,2013-03-13 07:33:00,
2013-03-13 02:48:00,22.8,19.0,30.20,WNW,300,2.0,10.0,84,0.00,,,0.00,weatherlink.com 1.10,2013-03-13 07:48:00,
2013-03-13 03:03:00,22.5,19.0,30.20,NNW,337,4.0,10.0,86,0.00,,,0.00,weatherlink.com 1.10,2013-03-13 08:03:00,
2013-03-13 03:18:00,22.4,19.0,30.20,WNW,287,4.0,10.0,86,0.00,,,0.00,weatherlink.com 1.10,2013-03-13 08:18:00,
2013-03-13 03:33:00,22.3,19.0,30.20,West,263,3.0,13.0,85,0.00,,,0.00,weatherlink.com 1.10,2013-03-13 08:33:00,
2013-03-13 03:48:00,22.3,19.0,30.20,NW,323,7.0,13.0,85,0.00,,,0.00,weatherlink.com 1.10,2013-03-13 08:48:00,
2013-03-13 04:03:00,22.1,18.0,30.21,NW,315,1.0,11.0,85,0.00,,,0.00,weatherlink.com 1.10,2013-03-13 09:03:00,
2013-03-13 04:18:00,21.9,18.0,30.21,NNW,330,2.0,13.0,85,0.00,,,0.00,weatherlink.com 1.10,2013-03-13 09:18:00,
2013-03-13 04:33:00,21.9,18.0,30.22,NNW,333,8.0,15.0,85,0.00,,,0.00,weatherlink.com 1.10,2013-03-13 09:33:00,
2013-03-13 04:48:00,21.7,18.0,30.23,WNW,302,6.0,14.0,85,0.00,,,0.00,weatherlink.com 1.10,2013-03-13 09:48:00,
2013-03-13 05:03:00,21.6,18.0,30.23,WNW,285,6.0,11.0,85,0.00,,,0.00,weatherlink.com 1.10,2013-03-13 10:03:00,
2013-03-13 05:18:00,21.6,18.0,30.24,WNW,298,3.0,12.0,85,0.00,,,0.00,weatherlink.com 1.10,2013-03-13 10:18:00,
2013-03-13 05:33:00,21.5,18.0,30.24,NNW,333,4.0,10.0,85,0.00,,,0.00,weatherlink.com 1.10,2013-03-13 10:33:00,
2013-03-13 05:48:00,21.3,18.0,30.25,WNW,302,3.0,9.0,86,0.00,,,0.00,weatherlink.com 1.10,2013-03-13 10:48:00,
2013-03-13 06:03:00,21.3,18.0,30.25,NW,310,5.0,10.0,86,0.00,,,0.00,weatherlink.com 1.10,2013-03-13 11:03:00,
2013-03-13 06:18:00,21.3,18.0,30.26,WNW,294,6.0,12.0,86,0.00,,,0.00,weatherlink.com 1.10,2013-03-13 11:18:00,
2013-03-13 06:33:00,21.0,18.0,30.27,NW,305,4.0,10.0,86,0.00,,,0.00,weatherlink.com 1.10,2013-03-13 11:33:00,
2013-03-13 06:49:00,21.1,17.0,30.27,NW,310,4.0,13.0,85,0.00,,,0.00,weatherlink.com 1.10,2013-03-13 11:49:00,
2013-03-13 07:04:00,21.1,18.0,30.28,WNW,300,3.0,12.0,86,0.00,,,0.00,weatherlink.com 1.10,2013-03-13 12:04:00,
2013-03-13 07:19:00,20.9,17.0,30.28,NW,308,3.0,13.0,86,0.00,,,0.00,weatherlink.com 1.10,2013-03-13 12:19:00,
2013-03-13 07:34:00,20.9,17.0,30.29,WNW,300,2.0,12.0,86,0.00,,,0.00,weatherlink.com 1.10,2013-03-13 12:34:00,
2013-03-13 07:49:00,20.9,17.0,30.30,NW,310,2.0,10.0,86,0.00,,,0.00,weatherlink.com 1.10,2013-03-13 12:49:00,
2013-03-13 08:04:00,21.3,18.0,30.31,WNW,288,3.0,14.0,86,0.00,,,0.00,weatherlink.com 1.10,2013-03-13 13:04:00,
2013-03-13 08:19:00,21.9,18.0,30.31,NW,305,4.0,11.0,85,0.00,,,0.00,weatherlink.com 1.10,2013-03-13 13:19:00,
2013-03-13 08:34:00,22.6,19.0,30.32,NNW,332,6.0,11.0,84,0.00,,,0.00,weatherlink.com 1.10,2013-03-13 13:34:00,
2013-03-13 08:49:00,23.2,19.0,30.33,NW,307,7.0,12.0,84,0.00,,,0.00,weatherlink.com 1.10,2013-03-13 13:49:00,
2013-03-13 09:04:00,23.0,18.0,30.34,West,276,2.0,14.0,82,0.00,,,0.00,weatherlink.com 1.10,2013-03-13 14:04:00,
2013-03-13 09:19:00,23.8,19.0,30.34,WNW,295,7.0,15.0,82,0.00,,,0.00,weatherlink.com 1.10,2013-03-13 14:19:00,
2013-03-13 09:34:00,24.2,19.0,30.35,WNW,293,15.0,15.0,79,0.00,,,0.00,weatherlink.com 1.10,2013-03-13 14:34:00,
2013-03-13 09:49:00,24.4,18.0,30.35,NW,322,10.0,16.0,78,0.00,,,0.00,weatherlink.com 1.10,2013-03-13 14:49:00,
2013-03-13 10:04:00,24.4,18.0,30.36,NNW,330,3.0,13.0,78,0.00,,,0.00,weatherlink.com 1.10,2013-03-13 15:04:00,
2013-03-13 10:19:00,25.7,18.0,30.36,WNW,283,4.0,16.0,73,0.00,,,0.00,weatherlink.com 1.10,2013-03-13 15:19:00,
2013-03-13 10:34:00,26.2,19.0,30.37,NNE,16,3.0,17.0,75,0.00,,,0.00,weatherlink.com 1.10,2013-03-13 15:34:00,
2013-03-13 10:49:00,26.9,19.0,30.38,NNW,344,6.0,17.0,73,0.00,,,0.00,weatherlink.com 1.10,2013-03-13 15:49:00,
2013-03-13 11:04:00,28.2,21.0,30.38,NNE,15,4.0,10.0,73,0.00,,,0.00,weatherlink.com 1.10,2013-03-13 16:04:00,
2013-03-13 11:19:00,28.6,20.0,30.38,NW,307,9.0,12.0,70,0.00,,,0.00,weatherlink.com 1.10,2013-03-13 16:19:00,
2013-03-13 11:34:00,28.9,21.0,30.39,WNW,296,6.0,12.0,71,0.00,,,0.00,weatherlink.com 1.10,2013-03-13 16:34:00,
2013-03-13 11:49:00,28.9,20.0,30.39,NW,311,8.0,16.0,68,0.00,,,0.00,weatherlink.com 1.10,2013-03-13 16:49:00,
2013-03-13 12:04:00,30.0,21.0,30.39,NNW,328,2.0,15.0,68,0.00,,,0.00,weatherlink.com 1.10,2013-03-13 17:04:00,
2013-03-13 12:19:00,31.3,21.0,30.40,NW,321,7.0,15.0,67,0.00,,,0.00,weatherlink.com 1.10,2013-03-13 17:19:00,
2013-03-13 12:34:00,31.0,22.0,30.40,NW,315,10.0,14.0,68,0.00,,,0.00,weatherlink.com 1.10,2013-03-13 17:34:00,
2013-03-13 12:49:00,31.7,20.0,30.40,NW,314,8.0,14.0,63,0.00,,,0.00,weatherlink.com 1.10,2013-03-13 17:49:00,
2013-03-13 13:04:00,32.4,22.0,30.40,NNW,343,8.0,12.0,65,0.00,,,0.00,weatherlink.com 1.10,2013-03-13 18:04:00,
2013-03-13 13:19:00,32.1,19.0,30.40,NW,307,11.0,16.0,59,0.00,,,0.00,weatherlink.com 1.10,2013-03-13 18:19:00,
2013-03-13 13:35:00,32.7,21.0,30.40,WNW,293,7.0,15.0,63,0.00,,,0.00,weatherlink.com 1.10,2013-03-13 18:35:00,
2013-03-13 13:50:00,33.1,19.0,30.40,WNW,285,3.0,14.0,56,0.00,,,0.00,weatherlink.com 1.10,2013-03-13 18:50:00,
2013-03-13 14:05:00,33.9,20.0,30.40,NW,322,3.0,12.0,56,0.00,,,0.00,weatherlink.com 1.10,2013-03-13 19:05:00,
2013-03-13 14:20:00,34.1,18.0,30.39,NW,318,7.0,14.0,53,0.00,,,0.00,weatherlink.com 1.10,2013-03-13 19:20:00,
2013-03-13 14:35:00,34.0,17.0,30.39,WNW,289,6.0,15.0,51,0.00,,,0.00,weatherlink.com 1.10,2013-03-13 19:35:00,
2013-03-13 14:50:00,34.4,17.0,30.39,NW,325,9.0,20.0,50,0.00,,,0.00,weatherlink.com 1.10,2013-03-13 19:50:00,
2013-03-13 15:05:00,34.2,18.0,30.39,NW,318,10.0,15.0,51,0.00,,,0.00,weatherlink.com 1.10,2013-03-13 20:05:00,
2013-03-13 15:20:00,34.4,19.0,30.39,West,279,5.0,15.0,54,0.00,,,0.00,weatherlink.com 1.10,2013-03-13 20:20:00,
2013-03-13 15:35:00,34.7,18.0,30.39,WNW,290,6.0,14.0,51,0.00,,,0.00,weatherlink.com 1.10,2013-03-13 20:35:00,
2013-03-13 15:50:00,35.2,19.0,30.40,NW,314,4.0,11.0,52,0.00,,,0.00,weatherlink.com 1.10,2013-03-13 20:50:00,
2013-03-13 16:05:00,35.2,19.0,30.39,WNW,284,6.0,14.0,51,0.00,,,0.00,weatherlink.com 1.10,2013-03-13 21:05:00,
2013-03-13 16:20:00,35.2,19.0,30.39,NW,309,7.0,15.0,51,0.00,,,0.00,weatherlink.com 1.10,2013-03-13 21:20:00,
2013-03-13 16:35:00,35.4,18.0,30.39,NW,305,4.0,12.0,50,0.00,,,0.00,weatherlink.com 1.10,2013-03-13 21:35:00,
2013-03-13 17:05:00,35.5,20.0,30.40,WNW,295,3.0,11.0,54,0.00,,,0.00,weatherlink.com 1.10,2013-03-13 22:05:00,
2013-03-13 17:20:00,35.0,19.0,30.40,West,278,2.0,10.0,53,0.00,,,0.00,weatherlink.com 1.10,2013-03-13 22:20:00,
2013-03-13 17:35:00,34.7,20.0,30.40,WNW,288,5.0,13.0,56,0.00,,,0.00,weatherlink.com 1.10,2013-03-13 22:35:00,
2013-03-13 17:50:00,34.4,20.0,30.40,NW,314,4.0,10.0,56,0.00,,,0.00,weatherlink.com 1.10,2013-03-13 22:50:00,
2013-03-13 18:05:00,34.0,19.0,30.40,WNW,283,4.0,9.0,55,0.00,,,0.00,weatherlink.com 1.10,2013-03-13 23:05:00,
2013-03-13 18:20:00,33.7,20.0,30.40,West,273,3.0,7.0,58,0.00,,,0.00,weatherlink.com 1.10,2013-03-13 23:20:00,
2013-03-13 18:35:00,33.1,18.0,30.41,West,278,3.0,7.0,55,0.00,,,0.00,weatherlink.com 1.10,2013-03-13 23:35:00,
2013-03-13 18:50:00,32.4,19.0,30.40,WNW,302,5.0,8.0,57,0.00,,,0.00,weatherlink.com 1.10,2013-03-13 23:50:00,
2013-03-13 19:05:00,31.1,19.0,30.40,WNW,295,2.0,6.0,60,0.00,,,0.00,weatherlink.com 1.10,2013-03-14 00:05:00,
2013-03-13 19:20:00,30.5,19.0,30.40,NW,315,0.0,4.0,62,0.00,,,0.00,weatherlink.com 1.10,2013-03-14 00:20:00,
2013-03-13 19:35:00,29.5,19.0,30.40,West,280,1.0,3.0,65,0.00,,,0.00,weatherlink.com 1.10,2013-03-14 00:35:00,
2013-03-13 19:50:00,29.0,19.0,30.40,WNW,293,1.0,3.0,67,0.00,,,0.00,weatherlink.com 1.10,2013-03-14 00:50:00,
2013-03-13 20:05:00,28.3,19.0,30.40,WNW,287,0.0,3.0,68,0.00,,,0.00,weatherlink.com 1.10,2013-03-14 01:05:00,
2013-03-13 20:20:00,28.3,19.0,30.40,West,281,1.0,2.0,68,0.00,,,0.00,weatherlink.com 1.10,2013-03-14 01:20:00,
2013-03-13 20:35:00,28.0,19.0,30.40,West,280,0.0,3.0,69,0.00,,,0.00,weatherlink.com 1.10,2013-03-14 01:35:00,
2013-03-13 20:50:00,28.0,19.0,30.40,WNW,282,1.0,3.0,69,0.00,,,0.00,weatherlink.com 1.10,2013-03-14 01:50:00,
2013-03-13 21:05:00,27.5,19.0,30.40,West,276,1.0,2.0,71,0.00,,,0.00,weatherlink.com 1.10,2013-03-14 02:05:00,
2013-03-13 21:20:00,27.0,19.0,30.40,West,271,0.0,1.0,73,0.00,,,0.00,weatherlink.com 1.10,2013-03-14 02:20:00,
2013-03-13 21:35:00,26.8,20.0,30.40,West,270,0.0,1.0,74,0.00,,,0.00,weatherlink.com 1.10,2013-03-14 02:35:00,
2013-03-13 21:50:00,26.3,20.0,30.40,WSW,256,0.0,1.0,77,0.00,,,0.00,weatherlink.com 1.10,2013-03-14 02:50:00,
2013-03-13 22:20:00,26.4,20.0,30.40,West,266,0.0,1.0,77,0.00,,,0.00,weatherlink.com 1.10,2013-03-14 03:20:00,
2013-03-13 22:35:00,25.4,20.0,30.40,West,267,0.0,1.0,79,0.00,,,0.00,weatherlink.com 1.10,2013-03-14 03:35:00,
2013-03-13 22:50:00,25.5,20.0,30.40,West,267,0.0,1.0,80,0.00,,,0.00,weatherlink.com 1.10,2013-03-14 03:50:00,
2013-03-13 23:05:00,25.3,20.0,30.40,West,266,0.0,1.0,79,0.00,,,0.00,weatherlink.com 1.10,2013-03-14 04:05:00,
2013-03-13 23:20:00,25.3,20.0,30.40,West,266,0.0,1.0,80,0.00,,,0.00,weatherlink.com 1.10,2013-03-14 04:20:00,
2013-03-13 23:35:00,24.4,19.0,30.40,West,266,0.0,0.0,81,0.00,,,0.00,weatherlink.com 1.10,2013-03-14 04:35:00,
2013-03-13 23:50:00,22.7,18.0,30.40,West,266,0.0,0.0,82,0.00,,,0.00,weatherlink.com 1.10,2013-03-14 04:50:00,